Time;durP1;ratioP1;P1;durP2;ratioP2;P2;SDS_P1;SDS_P2;PMS_P1;PMS_P2;Temp;Humidity;BMP_temperature;BMP_pressure;BME280_temperature;BME280_humidity;BME280_pressure;Samples;Min_cycle;Max_cycle;Signal;HPM_P1;HPM_P2
2022/11/12 00:00:33;;;;;;;8.83;5.97;;;9.40;99.90;;;;;;7385718;19;20142;-75
2022/11/12 00:02:58;;;;;;;11.47;6.70;;;9.00;99.90;;;;;;7387326;19;20135;-74
2022/11/12 00:05:25;;;;;;;11.23;6.17;;;9.40;99.90;;;;;;7385782;19;20437;-74
2022/11/12 00:07:51;;;;;;;8.03;6.13;;;9.70;99.90;;;;;;7386979;19;20167;-74
2022/11/12 00:10:17;;;;;;;11.27;6.57;;;9.90;99.90;;;;;;7388238;19;20142;-75
2022/11/12 00:12:43;;;;;;;6.77;5.67;;;9.90;99.90;;;;;;7388214;19;20656;-74
2022/11/12 00:15:10;;;;;;;7.57;5.73;;;9.90;99.90;;;;;;7385810;19;20156;-75
2022/11/12 00:17:35;;;;;;;9.53;5.53;;;10.00;99.90;;;;;;7386596;19;20616;-74
2022/11/12 00:20:02;;;;;;;7.90;5.93;;;10.10;99.90;;;;;;7387290;19;20149;-75
2022/11/12 00:22:27;;;;;;;7.70;5.57;;;9.70;99.90;;;;;;7384295;19;20524;-73
2022/11/12 00:24:54;;;;;;;12.23;5.43;;;9.50;99.90;;;;;;7385984;19;20145;-75
2022/11/12 00:27:20;;;;;;;10.57;5.30;;;9.50;99.90;;;;;;7387761;19;20142;-73
2022/11/12 00:29:46;;;;;;;10.83;6.10;;;9.70;99.90;;;;;;7385910;19;20131;-75
2022/11/12 00:32:12;;;;;;;10.63;5.70;;;9.80;99.90;;;;;;7388541;19;20164;-74
2022/11/12 00:34:38;;;;;;;9.63;5.27;;;10.00;99.90;;;;;;7387126;19;20135;-74
2022/11/12 00:37:04;;;;;;;9.37;5.63;;;9.90;99.90;;;;;;7385809;19;20181;-75
2022/11/12 00:39:29;;;;;;;7.23;5.43;;;9.80;99.90;;;;;;7384662;19;20738;-74
2022/11/12 00:41:55;;;;;;;7.57;5.40;;;9.80;99.90;;;;;;7383690;19;20149;-74
2022/11/12 00:44:21;;;;;;;7.47;5.13;;;9.50;99.90;;;;;;7385285;19;20165;-74
2022/11/12 00:46:47;;;;;;;8.23;5.63;;;9.50;99.90;;;;;;7385070;19;20127;-74
2022/11/12 00:49:13;;;;;;;8.47;5.43;;;9.70;99.90;;;;;;7386307;19;20158;-74
2022/11/12 00:51:40;;;;;;;8.90;6.03;;;9.70;99.90;;;;;;7387326;19;20127;-74
2022/11/12 00:54:07;;;;;;;9.50;6.03;;;9.80;99.90;;;;;;7386271;19;20472;-76
2022/11/12 00:56:32;;;;;;;7.87;5.07;;;9.70;99.90;;;;;;7384259;19;20137;-73
2022/11/12 00:58:58;;;;;;;8.70;5.83;;;9.70;99.90;;;;;;7387987;19;20130;-74
2022/11/12 01:01:24;;;;;;;10.37;5.40;;;9.90;99.90;;;;;;7383512;19;20142;-75
2022/11/12 01:03:50;;;;;;;9.30;5.67;;;10.00;99.90;;;;;;7383788;19;20221;-73
2022/11/12 01:06:21;;;;;;;8.13;5.93;;;10.10;99.90;;;;;;7384433;19;20239;-74
2022/11/12 01:08:48;;;;;;;10.27;6.33;;;9.90;99.90;;;;;;7379712;19;20147;-74
2022/11/12 01:11:23;;;;;;;8.77;5.30;;;9.80;99.90;;;;;;7388802;19;20240;-74
2022/11/12 01:13:57;;;;;;;11.60;6.03;;;9.60;99.90;;;;;;7386011;19;20135;-74
2022/11/12 01:16:26;;;;;;;8.83;5.93;;;9.60;99.90;;;;;;7388726;19;20149;-73
2022/11/12 01:18:55;;;;;;;8.53;6.40;;;9.60;99.90;;;;;;7389082;19;20134;-74
2022/11/12 01:21:22;;;;;;;8.50;5.60;;;9.50;99.90;;;;;;7377760;19;20138;-75
2022/11/12 01:23:48;;;;;;;8.70;5.50;;;9.50;99.90;;;;;;7384155;19;20243;-75
2022/11/12 01:26:17;;;;;;;7.43;5.50;;;9.10;99.90;;;;;;7384396;19;20627;-74
2022/11/12 01:28:43;;;;;;;7.30;5.00;;;9.10;99.90;;;;;;7384169;19;20218;-75
2022/11/12 01:31:13;;;;;;;8.33;5.47;;;9.20;99.90;;;;;;7384339;19;20144;-74
2022/11/12 01:33:45;;;;;;;8.67;5.67;;;9.50;99.90;;;;;;7384125;19;21272;-73
2022/11/12 01:36:12;;;;;;;11.13;5.90;;;9.70;99.90;;;;;;7382505;19;20223;-74
2022/11/12 01:38:39;;;;;;;9.00;6.37;;;9.80;99.90;;;;;;7381187;19;20133;-74
2022/11/12 01:41:07;;;;;;;9.43;5.80;;;9.70;99.90;;;;;;7385183;19;20468;-74
2022/11/12 01:43:32;;;;;;;7.63;5.77;;;9.40;99.90;;;;;;7384120;19;20134;-74
2022/11/12 01:46:01;;;;;;;8.07;5.93;;;9.10;99.90;;;;;;7383298;19;20156;-74
2022/11/12 01:48:38;;;;;;;8.13;5.63;;;9.30;99.90;;;;;;7386205;19;20564;-74
2022/11/12 01:51:06;;;;;;;8.07;5.13;;;9.40;99.90;;;;;;7385201;19;20134;-74
2022/11/12 01:53:37;;;;;;;9.07;5.60;;;9.40;99.90;;;;;;7383411;19;20151;-74
2022/11/12 01:56:05;;;;;;;7.87;5.67;;;9.20;99.90;;;;;;7383990;19;20133;-73
2022/11/12 01:58:32;;;;;;;9.13;5.60;;;9.10;99.90;;;;;;7388600;19;20193;-73
2022/11/12 02:00:59;;;;;;;6.90;5.23;;;8.80;99.90;;;;;;7389706;19;20150;-73
2022/11/12 02:03:25;;;;;;;8.80;5.47;;;8.70;99.90;;;;;;7391677;19;20193;-74
2022/11/12 02:05:57;;;;;;;6.27;4.77;;;8.70;99.90;;;;;;7390959;19;20622;-73
2022/11/12 02:08:24;;;;;;;8.77;5.27;;;8.90;99.90;;;;;;7391849;19;20143;-74
2022/11/12 02:10:50;;;;;;;6.07;4.80;;;9.00;99.90;;;;;;7389764;19;20510;-72
2022/11/12 02:16:03;;;;;;;6.93;5.47;;;9.30;99.90;;;;;;7392512;19;20158;-75
2022/11/12 02:18:29;;;;;;;7.97;4.90;;;9.40;99.90;;;;;;7389901;19;20138;-74
2022/11/12 02:21:01;;;;;;;7.03;5.10;;;9.40;99.90;;;;;;7391649;19;20202;-75
2022/11/12 02:23:27;;;;;;;8.10;5.77;;;9.30;99.90;;;;;;7390036;19;20494;-73
2022/11/12 02:25:53;;;;;;;7.87;4.67;;;9.40;99.90;;;;;;7391487;19;20145;-73
2022/11/12 02:28:20;;;;;;;7.13;5.00;;;9.40;99.90;;;;;;7391999;19;20604;-74
2022/11/12 02:30:48;;;;;;;6.47;4.90;;;9.40;99.90;;;;;;7389804;19;20154;-74
2022/11/12 02:33:14;;;;;;;8.30;5.20;;;9.50;99.90;;;;;;7389845;19;20599;-74
2022/11/12 02:35:40;;;;;;;6.57;5.40;;;9.50;99.90;;;;;;7390299;19;20139;-74
2022/11/12 02:38:07;;;;;;;8.00;5.40;;;9.50;99.90;;;;;;7390913;19;20690;-74
2022/11/12 02:40:32;;;;;;;9.07;5.13;;;9.50;99.90;;;;;;7389866;19;20143;-74
2022/11/12 02:42:58;;;;;;;6.80;5.03;;;9.50;99.90;;;;;;7390083;19;20161;-74
2022/11/12 02:45:25;;;;;;;8.07;5.83;;;9.40;99.90;;;;;;7388118;19;20611;-74
2022/11/12 02:47:51;;;;;;;6.83;5.57;;;9.20;99.90;;;;;;7388074;19;20533;-75
2022/11/12 02:50:18;;;;;;;10.30;6.10;;;9.10;99.90;;;;;;7391509;19;20138;-73
2022/11/12 02:52:44;;;;;;;7.00;5.37;;;9.10;99.90;;;;;;7390897;19;20146;-73
2022/11/12 02:55:11;;;;;;;7.57;5.10;;;9.10;99.90;;;;;;7389791;19;20160;-73
2022/11/12 02:57:38;;;;;;;8.87;5.43;;;9.10;99.90;;;;;;7386291;19;20679;-73
2022/11/12 03:00:06;;;;;;;6.63;5.23;;;8.90;99.90;;;;;;7388875;19;20142;-75
2022/11/12 03:02:32;;;;;;;6.10;4.53;;;8.60;99.90;;;;;;7386574;19;20159;-73
2022/11/12 03:04:58;;;;;;;9.83;6.43;;;8.80;99.90;;;;;;7388245;19;20146;-73
2022/11/12 03:07:23;;;;;;;7.43;5.40;;;9.00;99.90;;;;;;7386348;19;20646;-74
2022/11/12 03:09:49;;;;;;;8.27;5.23;;;9.10;99.90;;;;;;7389038;19;20134;-74
2022/11/12 03:12:15;;;;;;;6.77;5.67;;;9.10;99.90;;;;;;7389500;19;20150;-74
2022/11/12 03:14:40;;;;;;;6.33;4.93;;;9.10;99.90;;;;;;7386904;19;20274;-74
2022/11/12 03:17:06;;;;;;;9.50;5.13;;;9.10;99.90;;;;;;7388136;19;20150;-75
2022/11/12 03:19:32;;;;;;;7.20;5.03;;;9.10;99.90;;;;;;7385746;19;20139;-74
2022/11/12 03:21:57;;;;;;;6.73;5.10;;;9.20;99.90;;;;;;7386496;19;20151;-74
2022/11/12 03:24:23;;;;;;;7.43;5.00;;;9.10;99.90;;;;;;7389421;19;20147;-74
2022/11/12 03:26:49;;;;;;;7.00;4.80;;;8.90;99.90;;;;;;7386367;19;20145;-75
2022/11/12 03:29:15;;;;;;;7.03;4.70;;;9.00;99.90;;;;;;7390268;19;20144;-74
2022/11/12 03:31:41;;;;;;;7.33;5.40;;;9.10;99.90;;;;;;7388093;19;20163;-74
2022/11/12 03:34:07;;;;;;;7.87;5.10;;;9.00;99.90;;;;;;7387690;19;20131;-74
2022/11/12 03:36:32;;;;;;;6.83;5.40;;;9.00;99.90;;;;;;7388215;19;20138;-74
2022/11/12 03:38:58;;;;;;;6.97;4.93;;;8.90;99.90;;;;;;7383775;19;20138;-73
2022/11/12 03:41:24;;;;;;;5.90;4.30;;;8.80;99.90;;;;;;7387679;19;20494;-74
2022/11/12 03:43:49;;;;;;;6.63;4.57;;;8.60;99.90;;;;;;7387004;19;20137;-74
2022/11/12 03:46:15;;;;;;;6.63;4.50;;;8.60;99.90;;;;;;7388200;19;20138;-76
2022/11/12 03:48:41;;;;;;;4.83;4.33;;;8.30;99.90;;;;;;7385524;19;20134;-75
2022/11/12 03:51:07;;;;;;;5.53;4.27;;;7.50;99.90;;;;;;7388780;19;20194;-76
2022/11/12 03:53:32;;;;;;;4.80;3.93;;;7.90;99.90;;;;;;7386371;19;20151;-76
2022/11/12 03:55:58;;;;;;;4.93;4.07;;;7.90;99.90;;;;;;7387366;19;20515;-76
2022/11/12 03:58:24;;;;;;;5.23;4.40;;;8.30;99.90;;;;;;7385545;19;20277;-77
2022/11/12 04:00:50;;;;;;;5.63;3.87;;;8.40;99.90;;;;;;7387131;19;20158;-76
2022/11/12 04:03:15;;;;;;;4.97;4.03;;;8.00;99.90;;;;;;7388304;19;20602;-77
2022/11/12 04:08:34;;;;;;;7.20;4.17;;;8.10;99.90;;;;;;7387392;19;20142;-76
2022/11/12 04:11:08;;;;;;;5.47;4.23;;;8.40;99.90;;;;;;7383357;19;20137;-76
2022/11/12 04:13:37;;;;;;;5.57;4.03;;;8.60;99.90;;;;;;7388465;19;20150;-75
2022/11/12 04:21:53;;;;;;;4.43;3.73;;;8.30;99.90;;;;;;7386111;19;20142;-75
2022/11/12 04:27:27;;;;;;;4.17;3.47;;;8.50;99.90;;;;;;7384630;19;20163;-76
2022/11/12 04:32:44;;;;;;;6.17;3.70;;;8.30;99.90;;;;;;7386460;19;20134;-76
2022/11/12 04:35:12;;;;;;;4.40;3.63;;;8.50;99.90;;;;;;7385931;19;20134;-75
2022/11/12 04:37:44;;;;;;;4.03;3.63;;;8.50;99.90;;;;;;7386155;19;20138;-75
2022/11/12 04:45:45;;;;;;;3.87;3.30;;;8.70;99.90;;;;;;7386057;19;20162;-76
2022/11/12 04:48:10;;;;;;;3.60;3.13;;;8.70;99.90;;;;;;7387642;19;20142;-76
2022/11/12 04:50:36;;;;;;;4.23;3.53;;;8.60;99.90;;;;;;7384159;19;20149;-75
2022/11/12 04:53:02;;;;;;;2.87;2.53;;;8.50;99.90;;;;;;7386332;19;20473;-75
2022/11/12 04:55:28;;;;;;;6.60;3.47;;;8.10;99.90;;;;;;7384869;19;20214;-75
2022/11/12 04:57:54;;;;;;;3.43;2.90;;;7.00;99.90;;;;;;7383450;19;20608;-75
2022/11/12 05:00:19;;;;;;;3.57;3.00;;;7.30;99.90;;;;;;7385856;19;20155;-75
2022/11/12 05:02:47;;;;;;;4.33;3.20;;;7.70;99.90;;;;;;7386937;19;20130;-74
2022/11/12 05:05:13;;;;;;;3.83;3.03;;;8.10;99.90;;;;;;7385490;19;20239;-75
2022/11/12 05:07:39;;;;;;;3.93;3.40;;;8.20;99.90;;;;;;7385444;19;20159;-76
2022/11/12 05:10:05;;;;;;;6.13;3.23;;;8.30;99.90;;;;;;7385398;19;20134;-76
2022/11/12 05:12:31;;;;;;;4.33;3.47;;;8.40;99.90;;;;;;7384730;19;20236;-75
2022/11/12 05:14:57;;;;;;;3.67;3.00;;;8.70;99.90;;;;;;7383827;19;20138;-76
2022/11/12 05:17:22;;;;;;;3.73;3.00;;;8.50;99.90;;;;;;7383415;19;20145;-75
2022/11/12 05:19:48;;;;;;;4.13;2.87;;;8.50;99.90;;;;;;7384415;19;20138;-75
2022/11/12 05:22:14;;;;;;;3.80;3.10;;;8.60;99.90;;;;;;7383700;19;20157;-76
2022/11/12 05:24:43;;;;;;;3.87;2.97;;;8.20;99.90;;;;;;7382921;19;21035;-76
2022/11/12 05:27:15;;;;;;;3.40;2.70;;;8.30;99.90;;;;;;7381594;19;20252;-76
2022/11/12 05:29:41;;;;;;;3.83;3.00;;;8.50;99.90;;;;;;7383106;19;20146;-76
2022/11/12 05:32:09;;;;;;;4.33;3.30;;;8.60;99.90;;;;;;7382296;19;20153;-76
2022/11/12 05:34:35;;;;;;;4.53;2.93;;;8.60;99.90;;;;;;7383517;19;20163;-76
2022/11/12 05:37:03;;;;;;;4.27;3.53;;;7.90;99.90;;;;;;7383604;19;20150;-76
2022/11/12 05:39:28;;;;;;;3.70;2.90;;;7.70;99.90;;;;;;7385415;19;20142;-76
2022/11/12 05:41:54;;;;;;;3.50;3.20;;;7.60;99.90;;;;;;7380650;19;20668;-75
2022/11/12 05:44:20;;;;;;;4.20;3.20;;;7.90;99.90;;;;;;7382953;19;20820;-76
2022/11/12 05:46:46;;;;;;;3.27;2.90;;;8.30;99.90;;;;;;7383752;19;20209;-75
2022/11/12 05:49:12;;;;;;;3.57;2.83;;;8.50;99.90;;;;;;7382962;19;20202;-75
2022/11/12 05:51:38;;;;;;;3.53;2.90;;;8.50;99.90;;;;;;7384542;19;20139;-76
2022/11/12 05:54:04;;;;;;;5.30;3.43;;;8.50;99.90;;;;;;7382450;19;20141;-76
2022/11/12 05:56:30;;;;;;;3.83;3.20;;;8.30;99.90;;;;;;7381342;19;20643;-76
2022/11/12 05:58:56;;;;;;;3.50;2.97;;;8.50;99.90;;;;;;7383760;19;20127;-76
2022/11/12 06:01:22;;;;;;;4.03;3.33;;;8.40;99.90;;;;;;7382696;19;20135;-76
2022/11/12 06:03:47;;;;;;;3.63;3.10;;;8.60;99.90;;;;;;7382990;19;20163;-77
2022/11/12 06:06:15;;;;;;;4.63;3.20;;;8.40;99.90;;;;;;7382240;19;20695;-78
2022/11/12 06:08:40;;;;;;;5.97;3.67;;;8.10;99.90;;;;;;7383676;19;20250;-78
2022/11/12 06:11:06;;;;;;;4.33;3.23;;;8.30;99.90;;;;;;7383987;19;20134;-78
2022/11/12 06:13:32;;;;;;;7.57;2.97;;;8.40;99.90;;;;;;7382946;19;20534;-77
2022/11/12 06:15:58;;;;;;;3.43;3.07;;;8.40;99.90;;;;;;7383472;19;20131;-79
2022/11/12 06:18:25;;;;;;;4.63;3.57;;;8.10;99.90;;;;;;7382625;19;20586;-79
2022/11/12 06:23:35;;;;;;;3.10;2.80;;;8.50;99.90;;;;;;7384616;19;20137;-77
2022/11/12 06:26:02;;;;;;;3.20;2.80;;;8.50;99.90;;;;;;7383252;19;20606;-78
2022/11/12 06:28:28;;;;;;;4.40;3.53;;;8.60;99.90;;;;;;7382637;19;20141;-77
2022/11/12 06:30:53;;;;;;;4.03;2.83;;;8.30;99.90;;;;;;7381621;19;20134;-78
2022/11/12 06:33:20;;;;;;;3.33;2.73;;;7.80;99.90;;;;;;7384268;19;20157;-79
2022/11/12 06:35:45;;;;;;;3.70;3.30;;;7.60;99.90;;;;;;7382915;19;20146;-78
2022/11/12 06:38:11;;;;;;;3.20;2.60;;;7.50;99.90;;;;;;7384556;19;20141;-78
2022/11/12 06:40:37;;;;;;;3.60;3.10;;;7.80;99.90;;;;;;7384115;19;20654;-78
2022/11/12 06:43:02;;;;;;;3.23;2.90;;;7.60;99.90;;;;;;7387773;19;20164;-78
2022/11/12 06:45:28;;;;;;;3.20;2.90;;;7.40;99.90;;;;;;7389506;19;20150;-78
2022/11/12 06:47:58;;;;;;;3.10;2.67;;;7.30;99.90;;;;;;7390586;19;20461;-79
2022/11/12 06:50:23;;;;;;;3.67;3.00;;;7.40;99.90;;;;;;7388995;19;20133;-78
2022/11/12 06:52:49;;;;;;;3.47;3.10;;;7.30;99.90;;;;;;7389064;19;20147;-77
2022/11/12 06:55:15;;;;;;;3.50;3.00;;;7.40;99.90;;;;;;7391116;19;20639;-78
2022/11/12 06:57:41;;;;;;;4.13;3.00;;;7.90;99.90;;;;;;7389189;19;20150;-77
2022/11/12 07:00:08;;;;;;;3.53;2.97;;;8.20;99.90;;;;;;7390920;19;20512;-77
2022/11/12 07:02:35;;;;;;;3.90;3.10;;;8.40;99.90;;;;;;7387080;19;20155;-78
2022/11/12 07:05:01;;;;;;;5.90;3.40;;;8.50;99.90;;;;;;7389065;19;20516;-78
2022/11/12 07:07:28;;;;;;;3.67;2.77;;;8.60;99.90;;;;;;7390168;19;20138;-78
2022/11/12 07:09:53;;;;;;;4.10;3.10;;;8.60;99.90;;;;;;7387470;19;20131;-77
2022/11/12 07:12:19;;;;;;;3.17;2.87;;;8.70;99.90;;;;;;7389492;19;20145;-78
2022/11/12 07:14:45;;;;;;;3.77;3.07;;;8.70;99.90;;;;;;7389614;19;20658;-77
2022/11/12 07:17:12;;;;;;;3.80;3.10;;;8.80;99.90;;;;;;7390786;19;20612;-79
2022/11/12 07:19:38;;;;;;;4.23;3.10;;;8.80;99.90;;;;;;7388640;19;20530;-77
2022/11/12 07:22:03;;;;;;;4.67;2.67;;;8.70;99.90;;;;;;7388186;19;20134;-79
2022/11/12 07:24:29;;;;;;;4.93;3.13;;;8.70;99.90;;;;;;7389182;19;20167;-78
2022/11/12 07:26:55;;;;;;;4.30;3.00;;;8.80;99.90;;;;;;7388750;19;20150;-79
2022/11/12 07:29:21;;;;;;;3.33;2.70;;;9.00;99.90;;;;;;7389404;19;20157;-79
2022/11/12 07:31:46;;;;;;;2.87;2.67;;;9.00;99.90;;;;;;7386790;19;20150;-78
2022/11/12 07:34:12;;;;;;;3.57;2.80;;;9.00;99.90;;;;;;7388269;19;20139;-78
2022/11/12 07:36:38;;;;;;;2.83;2.53;;;9.00;99.90;;;;;;7389731;19;20142;-78
2022/11/12 07:39:03;;;;;;;4.00;2.87;;;9.00;99.90;;;;;;7388638;19;20493;-80
2022/11/12 07:41:29;;;;;;;3.53;2.47;;;9.00;99.90;;;;;;7384477;19;20134;-79
2022/11/12 07:43:55;;;;;;;3.17;2.53;;;9.00;99.90;;;;;;7388576;19;20131;-78
2022/11/12 07:46:24;;;;;;;4.17;2.60;;;9.00;99.90;;;;;;7390190;19;20620;-78
2022/11/12 07:48:50;;;;;;;3.60;2.90;;;9.00;99.90;;;;;;7389657;19;20469;-78
2022/11/12 07:51:22;;;;;;;6.73;3.27;;;8.90;99.90;;;;;;7388844;19;20143;-76
2022/11/12 07:53:48;;;;;;;3.50;3.00;;;9.00;99.90;;;;;;7382848;19;20628;-74
2022/11/12 07:56:16;;;;;;;4.37;3.13;;;9.10;99.90;;;;;;7384293;19;20211;-75
2022/11/12 07:58:42;;;;;;;5.83;4.10;;;9.00;99.90;;;;;;7386801;19;20145;-75
2022/11/12 08:01:09;;;;;;;3.70;3.10;;;8.90;99.90;;;;;;7384948;19;20158;-76
2022/11/12 08:03:37;;;;;;;3.60;2.97;;;8.60;99.90;;;;;;7390709;19;20250;-75
2022/11/12 08:06:04;;;;;;;4.30;3.10;;;8.70;99.90;;;;;;7392239;19;20139;-76
2022/11/12 08:08:29;;;;;;;4.83;3.00;;;8.30;99.90;;;;;;7389812;19;20141;-75
2022/11/12 08:10:56;;;;;;;3.77;3.20;;;8.10;99.90;;;;;;7392673;19;20511;-75
2022/11/12 08:13:23;;;;;;;6.83;3.23;;;7.60;99.90;;;;;;7393785;19;20145;-76
2022/11/12 08:15:49;;;;;;;4.47;3.27;;;7.70;99.90;;;;;;7390130;19;20134;-76
2022/11/12 08:18:15;;;;;;;3.53;3.17;;;7.60;99.90;;;;;;7389299;19;20138;-76
2022/11/12 08:20:41;;;;;;;3.80;3.23;;;7.70;99.90;;;;;;7390858;19;20829;-77
2022/11/12 08:23:08;;;;;;;4.30;3.50;;;8.00;99.90;;;;;;7386254;19;20145;-76
2022/11/12 08:25:36;;;;;;;4.43;3.27;;;8.70;99.90;;;;;;7391971;19;20588;-76
2022/11/12 08:28:04;;;;;;;5.77;3.47;;;8.90;99.90;;;;;;7390293;19;20139;-76
2022/11/12 08:30:31;;;;;;;4.10;3.70;;;9.00;99.90;;;;;;7390150;19;20154;-76
2022/11/12 08:33:02;;;;;;;3.80;3.20;;;9.10;99.90;;;;;;7382674;19;20142;-74
2022/11/12 08:35:31;;;;;;;4.63;3.47;;;8.30;99.90;;;;;;7383377;19;20142;-77
2022/11/12 08:37:58;;;;;;;4.63;3.93;;;8.20;99.90;;;;;;7379946;19;20150;-76
2022/11/12 08:40:24;;;;;;;4.77;3.63;;;8.70;99.90;;;;;;7383791;19;20151;-77
2022/11/12 08:43:03;;;;;;;4.93;4.10;;;8.90;99.90;;;;;;7381322;19;20130;-81
2022/11/12 08:45:31;;;;;;;5.73;4.60;;;9.00;99.90;;;;;;7382019;19;20553;-77
2022/11/12 08:47:59;;;;;;;6.60;4.50;;;9.20;99.90;;;;;;7385542;19;20141;-77
2022/11/12 08:50:25;;;;;;;7.17;4.50;;;9.30;99.90;;;;;;7385930;19;20142;-78
2022/11/12 08:52:50;;;;;;;4.30;3.60;;;9.20;99.90;;;;;;7387295;19;20149;-78
2022/11/12 08:55:16;;;;;;;6.87;4.50;;;9.30;99.90;;;;;;7387625;19;20482;-77
2022/11/12 08:57:43;;;;;;;5.43;4.57;;;9.40;99.90;;;;;;7384239;19;20643;-77
2022/11/12 09:00:11;;;;;;;5.20;4.70;;;9.50;99.90;;;;;;7384213;19;20146;-78
2022/11/12 09:02:37;;;;;;;5.53;4.90;;;9.50;99.90;;;;;;7383940;19;20149;-76
2022/11/12 09:05:03;;;;;;;6.13;4.33;;;9.60;99.90;;;;;;7385233;19;20162;-77
2022/11/12 09:07:29;;;;;;;6.63;4.60;;;9.60;99.90;;;;;;7386680;19;20155;-78
2022/11/12 09:09:55;;;;;;;4.97;4.17;;;9.60;99.90;;;;;;7383619;19;20614;-79
2022/11/12 09:12:21;;;;;;;8.23;4.70;;;9.60;99.90;;;;;;7385985;19;20154;-77
2022/11/12 09:14:47;;;;;;;6.37;4.37;;;9.60;99.90;;;;;;7379165;19;20150;-77
2022/11/12 09:17:15;;;;;;;6.20;4.50;;;9.60;99.90;;;;;;7388669;19;20134;-77
2022/11/12 09:19:42;;;;;;;8.70;4.90;;;9.60;99.90;;;;;;7390442;19;20150;-77
2022/11/12 09:22:10;;;;;;;7.07;4.53;;;9.60;99.90;;;;;;7393370;19;20138;-76
2022/11/12 09:24:36;;;;;;;5.00;4.40;;;9.70;99.90;;;;;;7387038;19;20150;-78
2022/11/12 09:27:02;;;;;;;6.87;5.00;;;9.70;99.90;;;;;;7387240;19;20143;-77
2022/11/12 09:29:29;;;;;;;7.47;4.57;;;9.80;99.90;;;;;;7386998;19;20146;-77
2022/11/12 09:31:58;;;;;;;17.17;7.63;;;9.80;99.90;;;;;;7388774;19;20138;-77
2022/11/12 09:34:24;;;;;;;6.93;5.23;;;9.80;99.90;;;;;;7391977;19;20485;-77
2022/11/12 09:36:50;;;;;;;8.20;5.43;;;9.80;99.90;;;;;;7387739;19;20154;-78
2022/11/12 09:39:16;;;;;;;7.30;5.53;;;9.80;99.90;;;;;;7389232;19;20138;-79
2022/11/12 09:41:42;;;;;;;11.53;5.50;;;9.90;99.90;;;;;;7389217;19;20158;-77
2022/11/12 09:44:23;;;;;;;7.23;4.23;;;10.00;99.90;;;;;;7389323;19;20134;-78
2022/11/12 09:46:58;;;;;;;6.23;4.63;;;10.00;99.90;;;;;;7385987;19;20653;-79
2022/11/12 09:49:43;;;;;;;9.53;5.17;;;10.10;99.90;;;;;;7387195;19;20197;-79
2022/11/12 09:52:28;;;;;;;6.40;5.13;;;10.20;99.90;;;;;;7387680;19;20134;-80
2022/11/12 09:55:09;;;;;;;9.13;5.33;;;10.20;99.90;;;;;;7385041;19;20255;-80
2022/11/12 09:57:35;;;;;;;5.67;4.17;;;10.20;99.90;;;;;;7381528;19;20603;-80
2022/11/12 10:00:02;;;;;;;5.83;4.23;;;10.30;99.90;;;;;;7383707;19;20139;-80
2022/11/12 10:02:51;;;;;;;5.50;4.73;;;10.30;99.90;;;;;;7382588;19;20159;-79
2022/11/12 10:05:32;;;;;;;6.83;4.90;;;10.40;99.90;;;;;;7383449;19;20762;-81
2022/11/12 10:08:19;;;;;;;6.93;4.27;;;10.40;99.90;;;;;;7383870;19;20659;-78
2022/11/12 10:11:13;;;;;;;5.33;4.33;;;10.50;99.90;;;;;;7381970;19;20169;-82
2022/11/12 10:13:55;;;;;;;5.07;3.90;;;10.50;99.90;;;;;;7378748;19;20139;-75
2022/11/12 10:17:00;;;;;;;6.83;5.23;;;10.70;99.90;;;;;;7387476;19;20146;-75
2022/11/12 10:19:32;;;;;;;5.27;3.83;;;10.80;99.90;;;;;;7389133;19;20150;-75
2022/11/12 10:22:13;;;;;;;6.40;4.17;;;10.60;99.90;;;;;;7394008;19;20561;-76
2022/11/12 10:24:40;;;;;;;6.30;3.97;;;10.80;99.90;;;;;;7391369;19;20146;-76
2022/11/12 10:27:20;;;;;;;6.33;5.30;;;10.80;99.90;;;;;;7389128;19;20218;-77
2022/11/12 10:30:00;;;;;;;7.17;4.40;;;10.80;99.90;;;;;;7387864;19;20162;-76
2022/11/12 10:32:26;;;;;;;5.03;4.17;;;10.90;99.90;;;;;;7389930;19;20142;-76
2022/11/12 10:34:52;;;;;;;6.57;4.80;;;11.00;99.90;;;;;;7391151;19;20238;-75
2022/11/12 10:37:28;;;;;;;7.00;4.60;;;11.00;99.90;;;;;;7389977;19;20594;-76
2022/11/12 10:39:54;;;;;;;6.07;4.43;;;11.00;99.90;;;;;;7390134;19;20149;-76
2022/11/12 10:42:22;;;;;;;7.23;4.20;;;11.10;99.90;;;;;;7386953;19;20487;-77
2022/11/12 10:44:48;;;;;;;4.70;3.97;;;11.20;99.90;;;;;;7390969;19;20135;-75
2022/11/12 10:47:17;;;;;;;5.53;4.60;;;11.20;99.90;;;;;;7389332;19;20135;-78
2022/11/12 10:49:56;;;;;;;5.47;4.43;;;11.20;99.90;;;;;;7389790;19;20240;-76
2022/11/12 10:52:23;;;;;;;6.20;4.10;;;11.30;99.90;;;;;;7384772;19;20211;-76
2022/11/12 10:55:14;;;;;;;7.87;4.87;;;11.30;99.90;;;;;;7390543;19;20167;-77
2022/11/12 10:57:40;;;;;;;5.70;4.73;;;11.40;99.90;;;;;;7388832;19;20146;-77
2022/11/12 11:00:12;;;;;;;6.83;4.80;;;11.40;99.90;;;;;;7390007;19;20159;-76
2022/11/12 11:02:50;;;;;;;6.47;4.40;;;11.40;99.90;;;;;;7388151;19;20141;-77
2022/11/12 11:05:28;;;;;;;5.53;4.23;;;11.40;99.90;;;;;;7389349;19;20172;-77
2022/11/12 11:07:53;;;;;;;5.60;4.13;;;11.30;99.90;;;;;;7387260;19;20138;-76
2022/11/12 11:10:28;;;;;;;5.90;4.73;;;11.40;99.90;;;;;;7397811;19;20151;-75
2022/11/12 11:13:21;;;;;;;6.13;4.67;;;11.50;99.90;;;;;;7386651;19;20168;-76
2022/11/12 11:16:03;;;;;;;6.20;4.63;;;11.60;99.90;;;;;;7389413;19;20143;-79
2022/11/12 11:18:31;;;;;;;5.60;4.87;;;11.60;99.90;;;;;;7388780;19;20275;-78
2022/11/12 11:21:12;;;;;;;5.67;4.97;;;11.60;99.90;;;;;;7387732;19;20638;-77
2022/11/12 11:23:56;;;;;;;6.10;5.20;;;11.50;99.90;;;;;;7389713;19;20138;-76
2022/11/12 11:26:53;;;;;;;6.30;4.60;;;11.60;99.90;;;;;;7388578;19;20154;-76
2022/11/12 11:29:48;;;;;;;6.47;4.50;;;11.60;99.90;;;;;;7389068;19;20601;-78
2022/11/12 11:32:28;;;;;;;6.20;5.07;;;11.40;99.90;;;;;;7386571;19;20726;-77
2022/11/12 11:35:10;;;;;;;6.00;4.83;;;11.60;99.90;;;;;;7389018;19;20134;-78
2022/11/12 11:37:48;;;;;;;6.20;4.73;;;11.70;99.90;;;;;;7387917;19;20167;-78
2022/11/12 11:40:40;;;;;;;7.10;4.47;;;11.80;99.90;;;;;;7386805;19;20155;-75
2022/11/12 11:43:34;;;;;;;5.70;4.67;;;11.80;99.90;;;;;;7391346;19;20134;-75
2022/11/12 11:46:12;;;;;;;4.80;4.30;;;12.00;99.90;;;;;;7388582;19;20155;-78
2022/11/12 11:49:03;;;;;;;6.03;5.03;;;12.00;99.90;;;;;;7387893;19;20530;-77
2022/11/12 11:51:46;;;;;;;6.10;4.80;;;12.20;99.90;;;;;;7390414;19;20138;-76
2022/11/12 11:54:39;;;;;;;6.27;4.50;;;12.10;99.90;;;;;;7393398;19;20498;-76
2022/11/12 11:57:28;;;;;;;5.60;4.50;;;12.20;99.90;;;;;;7391282;19;20180;-77
2022/11/12 11:59:59;;;;;;;9.97;4.67;;;12.00;99.90;;;;;;7388096;19;20147;-77
2022/11/12 12:02:28;;;;;;;6.00;4.57;;;12.10;99.90;;;;;;7390853;19;20503;-76
2022/11/12 12:05:05;;;;;;;5.63;4.63;;;12.10;99.90;;;;;;7387278;19;20492;-76
2022/11/12 12:07:40;;;;;;;5.60;4.60;;;12.20;99.90;;;;;;7384960;19;20146;-76
2022/11/12 12:10:45;;;;;;;6.63;4.50;;;12.30;99.90;;;;;;7388545;19;20178;-76
2022/11/12 12:13:45;;;;;;;6.30;4.73;;;12.40;99.90;;;;;;7389362;19;20146;-77
2022/11/12 12:16:45;;;;;;;4.53;4.13;;;12.40;99.90;;;;;;7389578;19;20158;-75
2022/11/12 12:19:33;;;;;;;6.47;4.70;;;12.40;99.90;;;;;;7387051;19;20127;-77
2022/11/12 12:22:03;;;;;;;7.67;4.57;;;12.50;99.90;;;;;;7386114;19;20234;-80
2022/11/12 12:24:31;;;;;;;6.30;4.10;;;12.60;99.90;;;;;;7388279;19;20127;-76
2022/11/12 12:27:12;;;;;;;5.33;4.13;;;12.50;99.90;;;;;;7384084;19;20142;-77
2022/11/12 12:29:59;;;;;;;8.53;5.30;;;12.60;99.90;;;;;;7387906;19;20607;-79
2022/11/12 12:32:37;;;;;;;6.05;4.03;;;12.60;99.90;;;;;;7383784;19;20150;-75
2022/11/12 12:35:13;;;;;;;4.50;3.70;;;12.60;99.90;;;;;;7387260;19;20134;-77
2022/11/12 12:38:09;;;;;;;4.43;3.37;;;12.60;99.90;;;;;;7386828;19;20134;-75
2022/11/12 12:40:48;;;;;;;5.37;4.07;;;12.80;99.90;;;;;;7379988;19;20246;-76
2022/11/12 12:43:27;;;;;;;4.73;3.50;;;12.90;99.90;;;;;;7387489;19;20142;-77
2022/11/12 12:45:56;;;;;;;5.43;3.90;;;13.00;99.90;;;;;;7386859;19;20150;-76
2022/11/12 12:48:32;;;;;;;4.28;3.00;;;13.00;99.90;;;;;;7390068;19;20135;-77
2022/11/12 12:50:57;;;;;;;5.00;3.50;;;13.00;99.90;;;;;;7390531;19;20507;-74
2022/11/12 12:53:26;;;;;;;4.57;3.50;;;13.00;99.90;;;;;;7389402;19;20142;-75
2022/11/12 12:56:01;;;;;;;4.27;3.40;;;13.00;99.90;;;;;;7386422;19;20149;-75
2022/11/12 12:58:44;;;;;;;3.47;2.70;;;13.00;99.90;;;;;;7385383;19;20150;-75
2022/11/12 13:01:12;;;;;;;4.77;3.00;;;13.00;99.90;;;;;;7384468;19;20150;-74
2022/11/12 13:04:03;;;;;;;5.87;3.80;;;13.00;99.90;;;;;;7383084;19;20122;-75
2022/11/12 13:06:35;;;;;;;4.28;3.13;;;13.00;99.90;;;;;;7386859;19;20214;-77
2022/11/12 13:09:16;;;;;;;5.47;3.27;;;12.90;99.90;;;;;;7387457;19;20210;-76
2022/11/12 13:14:35;;;;;;;4.07;3.50;;;13.10;99.90;;;;;;7386606;19;20157;-77
2022/11/12 13:17:09;;;;;;;8.40;4.10;;;13.10;99.90;;;;;;7385873;19;20166;-76
2022/11/12 13:19:44;;;;;;;4.55;3.65;;;13.00;99.90;;;;;;7389708;19;20161;-79
2022/11/12 13:22:16;;;;;;;4.50;3.40;;;12.70;99.90;;;;;;7386672;19;20260;-80
2022/11/12 13:25:03;;;;;;;5.23;3.83;;;12.90;99.90;;;;;;7385880;19;20200;-80
2022/11/12 13:27:44;;;;;;;4.43;3.43;;;12.90;99.90;;;;;;7383021;19;20821;-78
2022/11/12 13:30:12;;;;;;;4.47;3.60;;;12.90;99.90;;;;;;7385706;19;20279;-79
2022/11/12 13:32:43;;;;;;;4.73;3.90;;;13.00;99.90;;;;;;7386802;19;20138;-79
2022/11/12 13:35:19;;;;;;;3.90;3.23;;;13.00;99.90;;;;;;7387211;19;20146;-79